createdAt,value
2022-09-26T00:01:45.592Z,86.68
2022-09-26T00:04:30.390Z,88.20
2022-09-26T00:07:02.113Z,88.82
2022-09-26T00:09:29.112Z,89.88
2022-09-26T00:11:58.409Z,91.10
2022-09-26T00:14:29.038Z,90.66
2022-09-26T00:16:58.233Z,89.16
2022-09-26T00:19:25.587Z,88.78
2022-09-26T00:21:52.669Z,88.15
2022-09-26T00:24:24.075Z,88.20
2022-09-26T00:26:53.048Z,89.76
2022-09-26T00:29:19.951Z,89.28
2022-09-26T00:31:48.939Z,89.10
2022-09-26T00:34:20.651Z,88.20
2022-09-26T00:36:47.706Z,89.13
2022-09-26T00:39:16.751Z,89.16
2022-09-26T00:41:47.304Z,89.26
2022-09-26T00:44:48.581Z,90.08
2022-09-26T00:47:59.468Z,90.71
2022-09-26T00:50:34.038Z,90.63
2022-09-26T00:53:09.398Z,89.85
2022-09-26T00:55:43.043Z,90.49
2022-09-26T00:58:28.218Z,90.66
2022-09-26T01:00:59.023Z,90.08
2022-09-26T01:03:27.944Z,90.87
2022-09-26T01:05:55.375Z,90.32
2022-09-26T01:08:36.824Z,91.09
2022-09-26T01:11:04.655Z,92.57
2022-09-26T01:13:34.571Z,93.25
2022-09-26T01:16:02.127Z,92.88
2022-09-26T01:18:29.691Z,92.22
2022-09-26T01:21:33.587Z,92.84
2022-09-26T01:24:23.743Z,92.54
2022-09-26T01:26:59.412Z,91.82
2022-09-26T01:30:08.387Z,90.54
2022-09-26T01:32:57.285Z,91.56
2022-09-26T01:35:37.059Z,91.51
2022-09-26T01:38:20.213Z,91.44
2022-09-26T01:41:22.151Z,91.21
2022-09-26T01:44:17.677Z,91.52
2022-09-26T01:47:15.490Z,91.83
2022-09-26T01:50:18.711Z,91.89
2022-09-26T01:53:12.227Z,91.93
2022-09-26T01:55:46.230Z,91.02
2022-09-26T01:58:27.624Z,92.18
2022-09-26T02:01:01.119Z,92.49
2022-09-26T02:03:34.824Z,93.83
2022-09-26T02:06:09.270Z,92.35
2022-09-26T02:08:44.491Z,92.71
2022-09-26T02:11:18.913Z,91.08
2022-09-26T02:14:34.878Z,91.62
2022-09-26T02:17:22.958Z,90.41
2022-09-26T02:19:56.666Z,90.23
2022-09-26T02:22:31.252Z,89.76
2022-09-26T02:24:58.634Z,91.34
2022-09-26T02:27:27.459Z,90.70
2022-09-26T02:29:54.831Z,90.89
2022-09-26T02:32:28.936Z,91.38
2022-09-26T02:34:56.673Z,91.65
2022-09-26T02:37:28.851Z,90.42
2022-09-26T02:39:56.734Z,90.39
2022-09-26T02:42:38.116Z,90.38
2022-09-26T02:45:30.255Z,90.28
2022-09-26T02:47:59.928Z,90.23
2022-09-26T02:50:47.112Z,90.67
2022-09-26T02:53:29.480Z,91.72
2022-09-26T02:56:24.070Z,90.72
2022-09-26T02:59:25.620Z,90.11
2022-09-26T03:02:06.274Z,90.30
2022-09-26T03:05:04.225Z,90.93
2022-09-26T03:07:37.645Z,91.14
2022-09-26T03:10:10.856Z,90.08
2022-09-26T03:12:39.498Z,90.16
2022-09-26T03:15:08.142Z,90.97
2022-09-26T03:17:43.086Z,91.40
2022-09-26T03:20:24.844Z,90.67
2022-09-26T03:22:52.481Z,91.30
2022-09-26T03:25:24.017Z,91.04
2022-09-26T03:27:53.625Z,91.22
2022-09-26T03:30:23.069Z,90.40
2022-09-26T03:32:52.082Z,90.19
2022-09-26T03:35:19.241Z,91.00
2022-09-26T03:37:46.436Z,90.73
2022-09-26T03:40:14.301Z,90.76
2022-09-26T03:42:43.944Z,91.39
2022-09-26T03:45:14.161Z,90.14
2022-09-26T03:47:43.581Z,91.06
2022-09-26T03:50:15.151Z,91.90
2022-09-26T03:52:42.073Z,91.59
2022-09-26T03:55:11.983Z,90.17
2022-09-26T03:57:38.845Z,90.77
2022-09-26T04:00:08.292Z,91.25
2022-09-26T04:02:35.338Z,91.56
2022-09-26T04:05:04.475Z,91.62
2022-09-26T04:07:31.397Z,91.43
2022-09-26T04:09:58.314Z,91.02
2022-09-26T04:12:25.773Z,90.40
2022-09-26T04:14:52.927Z,92.54
2022-09-26T04:17:20.461Z,90.83
2022-09-26T04:19:49.665Z,91.54
2022-09-26T04:22:19.768Z,90.63
2022-09-26T04:24:46.935Z,90.10
2022-09-26T04:27:15.894Z,90.48
2022-09-26T04:29:44.180Z,91.09
2022-09-26T04:32:12.566Z,91.88
2022-09-26T04:34:41.981Z,91.83
2022-09-26T04:37:13.364Z,91.64
2022-09-26T04:39:40.247Z,91.15
2022-09-26T04:42:09.373Z,92.20
2022-09-26T04:44:36.273Z,92.50
2022-09-26T04:47:03.134Z,90.97
2022-09-26T04:49:29.937Z,90.81
2022-09-26T04:51:56.754Z,91.73
2022-09-26T04:54:24.103Z,91.22
2022-09-26T04:56:53.500Z,91.51
2022-09-26T04:59:22.789Z,91.16
2022-09-26T05:01:49.646Z,90.92
2022-09-26T05:04:16.657Z,90.68
2022-09-26T05:06:43.525Z,91.62
2022-09-26T05:09:10.544Z,90.26
2022-09-26T05:11:41.993Z,90.28
2022-09-26T05:14:09.109Z,90.73
2022-09-26T05:16:37.112Z,92.04
2022-09-26T05:19:04.454Z,90.76
2022-09-26T05:21:32.787Z,89.99
2022-09-26T05:24:20.695Z,89.90
2022-09-26T05:26:55.257Z,88.73
2022-09-26T05:29:27.333Z,87.96
2022-09-26T05:31:56.756Z,88.40
2022-09-26T05:34:26.449Z,88.60
2022-09-26T05:36:59.329Z,88.38
2022-09-26T05:39:44.862Z,89.03
2022-09-26T05:42:11.768Z,89.68
2022-09-26T05:44:39.675Z,88.78
2022-09-26T05:47:09.866Z,89.07
2022-09-26T05:49:36.836Z,88.15
2022-09-26T05:52:04.064Z,87.71
2022-09-26T05:54:33.465Z,89.26
2022-09-26T05:57:00.869Z,87.53
2022-09-26T05:59:27.722Z,86.96
2022-09-26T06:01:55.767Z,87.47
2022-09-26T06:04:24.778Z,87.01
2022-09-26T06:06:54.332Z,88.55
2022-09-26T06:09:25.742Z,87.96
2022-09-26T06:11:52.560Z,88.88
2022-09-26T06:14:19.426Z,87.91
2022-09-26T06:16:48.706Z,88.17
2022-09-26T06:19:19.386Z,89.36
2022-09-26T06:21:51.017Z,89.24
2022-09-26T06:24:18.593Z,88.49
2022-09-26T06:26:48.439Z,88.96
2022-09-26T06:29:15.538Z,85.63
2022-09-26T06:31:43.251Z,83.91
2022-09-26T06:34:15.481Z,81.38
2022-09-26T06:36:42.589Z,80.11
2022-09-26T06:39:11.742Z,79.72
2022-09-26T06:41:38.803Z,81.16
2022-09-26T06:44:08.234Z,82.88
2022-09-26T06:46:35.326Z,84.76
2022-09-26T06:49:02.134Z,84.48
2022-09-26T06:51:30.521Z,84.82
2022-09-26T06:53:57.427Z,84.67
2022-09-26T06:56:24.346Z,84.52
2022-09-26T06:58:55.044Z,84.09
2022-09-26T07:01:22.084Z,84.23
2022-09-26T07:03:49.200Z,86.24
2022-09-26T07:06:17.155Z,85.47
2022-09-26T07:09:01.343Z,84.75
2022-09-26T07:11:42.130Z,84.48
2022-09-26T07:14:21.039Z,85.86
2022-09-26T07:16:52.069Z,86.22
2022-09-26T07:19:19.039Z,86.18
2022-09-26T07:21:49.976Z,86.96
2022-09-26T07:24:16.855Z,87.19
2022-09-26T07:26:46.543Z,88.40
2022-09-26T07:29:14.764Z,86.73
2022-09-26T07:31:41.928Z,86.35
2022-09-26T07:34:15.832Z,86.81
2022-09-26T07:36:47.487Z,86.87
2022-09-26T07:39:19.290Z,86.69
2022-09-26T07:41:46.740Z,85.85
2022-09-26T07:47:20.784Z,85.46
2022-09-26T07:50:08.513Z,86.70
2022-09-26T07:52:38.564Z,86.15
2022-09-26T07:55:06.905Z,85.52
2022-09-26T07:57:34.185Z,85.34
2022-09-26T08:00:05.109Z,87.30
2022-09-26T08:02:34.513Z,86.49
2022-09-26T08:05:05.698Z,85.34
2022-09-26T08:07:35.301Z,85.43
2022-09-26T08:10:04.170Z,84.72
2022-09-26T08:12:38.677Z,83.97
2022-09-26T08:15:08.900Z,83.33
2022-09-26T08:17:39.146Z,83.23
2022-09-26T08:20:06.796Z,81.22
2022-09-26T08:22:36.475Z,79.65
2022-09-26T08:25:06.728Z,74.66
2022-09-26T08:27:34.662Z,77.92
2022-09-26T08:30:04.633Z,76.91
2022-09-26T08:32:33.995Z,77.60
2022-09-26T08:35:02.935Z,77.50
2022-09-26T08:37:32.486Z,78.25
2022-09-26T08:40:00.920Z,78.20
2022-09-26T08:43:04.320Z,76.62
2022-09-26T08:46:04.833Z,75.38
2022-09-26T08:49:16.219Z,72.68
2022-09-26T08:51:51.586Z,71.05
2022-09-26T08:54:41.675Z,70.13
2022-09-26T08:57:36.261Z,72.76
2022-09-26T09:00:21.364Z,70.01
2022-09-26T09:03:16.183Z,71.31
2022-09-26T09:05:50.173Z,71.36
2022-09-26T09:08:23.278Z,70.48
2022-09-26T09:11:02.453Z,67.21
2022-09-26T09:14:10.914Z,63.79
2022-09-26T09:16:57.918Z,61.31
2022-09-26T09:19:50.741Z,58.71
2022-09-26T09:22:32.366Z,59.44
2022-09-26T09:25:05.859Z,60.76
2022-09-26T09:27:55.900Z,63.25
2022-09-26T09:30:57.509Z,63.56
2022-09-26T09:33:24.402Z,63.94
2022-09-26T09:36:14.056Z,65.27
2022-09-26T09:38:46.084Z,63.40
2022-09-26T09:41:21.375Z,58.47
2022-09-26T09:43:54.570Z,56.02
2022-09-26T09:46:29.729Z,54.04
2022-09-26T09:49:09.329Z,52.59
2022-09-26T09:52:07.490Z,49.68
2022-09-26T09:54:53.260Z,51.97
2022-09-26T09:57:36.639Z,54.53
2022-09-26T10:00:12.249Z,57.53
2022-09-26T10:03:11.418Z,60.40
2022-09-26T10:05:45.574Z,61.56
2022-09-26T10:08:19.349Z,60.80
2022-09-26T10:11:12.891Z,60.89
2022-09-26T10:13:42.961Z,60.68
2022-09-26T10:16:16.351Z,63.19
2022-09-26T10:19:10.611Z,63.31
2022-09-26T10:21:45.974Z,63.19
2022-09-26T10:24:34.219Z,65.09
2022-09-26T10:27:24.937Z,63.82
2022-09-26T10:30:02.249Z,64.27
2022-09-26T10:32:30.479Z,64.75
2022-09-26T10:35:20.492Z,63.97
2022-09-26T10:38:00.912Z,62.60
2022-09-26T10:40:46.187Z,60.69
2022-09-26T10:43:30.377Z,60.94
2022-09-26T10:46:15.532Z,62.77
2022-09-26T10:48:55.191Z,60.36
2022-09-26T10:51:45.566Z,59.36
2022-09-26T10:54:18.711Z,59.38
2022-09-26T10:56:54.195Z,59.39
2022-09-26T10:59:32.312Z,59.19
2022-09-26T11:02:03.802Z,59.89
2022-09-26T11:04:52.724Z,58.53
2022-09-26T11:07:34.008Z,59.31
2022-09-26T11:10:09.881Z,58.83
2022-09-26T11:12:39.652Z,58.04
2022-09-26T11:15:09.868Z,58.72
2022-09-26T11:17:45.394Z,58.15
2022-09-26T11:20:25.565Z,57.42
2022-09-26T11:23:20.133Z,57.38
2022-09-26T11:25:58.291Z,58.29
2022-09-26T11:28:38.506Z,58.28
2022-09-26T11:31:25.046Z,57.26
2022-09-26T11:37:08.759Z,57.83
2022-09-26T11:39:55.310Z,58.46
2022-09-26T11:43:06.542Z,59.36
2022-09-26T11:46:04.878Z,59.50
2022-09-26T11:49:15.361Z,60.96
2022-09-26T11:52:07.604Z,61.36
2022-09-26T11:55:15.154Z,62.15
2022-09-26T11:58:35.030Z,63.90
2022-09-26T12:01:21.104Z,62.35
2022-09-26T12:04:26.658Z,59.10
2022-09-26T12:07:07.376Z,56.09
2022-09-26T12:10:26.334Z,55.82
2022-09-26T12:13:18.121Z,57.05
2022-09-26T12:16:02.128Z,58.27
2022-09-26T12:18:53.559Z,59.05
2022-09-26T12:21:36.185Z,57.06
2022-09-26T12:24:36.768Z,58.12
2022-09-26T12:27:33.260Z,56.80
2022-09-26T12:30:14.689Z,56.51
2022-09-26T12:33:02.560Z,56.79
2022-09-26T12:35:56.674Z,58.19
2022-09-26T12:39:17.252Z,61.43
2022-09-26T12:42:00.332Z,62.97
2022-09-26T12:45:17.300Z,62.13
2022-09-26T12:48:02.253Z,63.85
2022-09-26T12:50:39.876Z,64.81
2022-09-26T12:53:22.042Z,66.58
2022-09-26T12:56:11.374Z,67.32
2022-09-26T12:59:16.107Z,67.03
2022-09-26T13:02:05.552Z,67.14
2022-09-26T13:04:57.594Z,67.09
2022-09-26T13:07:43.004Z,66.58
2022-09-26T13:10:25.196Z,67.38
2022-09-26T13:13:13.897Z,68.15
2022-09-26T13:16:00.387Z,69.49
2022-09-26T13:18:45.539Z,71.38
2022-09-26T13:21:37.596Z,72.26
2022-09-26T13:24:13.908Z,71.97
2022-09-26T13:26:54.159Z,72.94
2022-09-26T13:29:33.693Z,73.41
2022-09-26T13:32:25.752Z,74.79
2022-09-26T13:35:13.449Z,74.87
2022-09-26T13:38:25.345Z,75.34
2022-09-26T13:41:15.600Z,73.65
2022-09-26T13:43:57.394Z,75.52
2022-09-26T13:46:52.230Z,75.37
2022-09-26T13:49:42.829Z,73.94
2022-09-26T13:52:21.920Z,74.62
2022-09-26T13:55:15.051Z,74.21
2022-09-26T13:58:04.188Z,73.92
2022-09-26T14:00:31.610Z,75.08
2022-09-26T14:03:10.463Z,74.22
2022-09-26T14:05:46.588Z,74.51
2022-09-26T14:08:44.296Z,73.68
2022-09-26T14:11:27.834Z,72.99
2022-09-26T14:14:24.156Z,74.76
2022-09-26T14:17:04.837Z,74.63
2022-09-26T14:19:42.729Z,75.54
2022-09-26T14:22:19.168Z,76.04
2022-09-26T14:24:50.188Z,76.81
2022-09-26T14:27:39.521Z,76.99
2022-09-26T14:30:30.220Z,77.56
2022-09-26T14:33:06.492Z,78.17
2022-09-26T14:35:39.767Z,78.30
2022-09-26T14:38:19.793Z,80.08
2022-09-26T14:41:18.412Z,80.69
2022-09-26T14:43:49.887Z,80.52
2022-09-26T14:46:26.095Z,80.63
2022-09-26T14:49:01.770Z,81.52
2022-09-26T14:51:34.274Z,82.62
2022-09-26T14:54:05.649Z,82.62
2022-09-26T14:56:42.409Z,82.19
2022-09-26T14:59:26.783Z,82.79
2022-09-26T15:02:39.528Z,83.81
2022-09-26T15:05:22.691Z,86.19
2022-09-26T15:07:55.266Z,86.11
2022-09-26T15:10:42.720Z,86.44
2022-09-26T15:13:22.734Z,85.67
2022-09-26T15:16:42.702Z,86.20
2022-09-26T15:19:19.553Z,87.93
2022-09-26T15:21:58.429Z,90.10
2022-09-26T15:24:30.116Z,90.49
2022-09-26T15:27:03.707Z,89.45
2022-09-26T15:29:30.562Z,89.29
2022-09-26T15:31:57.655Z,90.39
2022-09-26T15:34:35.256Z,89.97
2022-09-26T15:37:19.628Z,91.37
2022-09-26T15:39:49.227Z,89.94
2022-09-26T15:42:41.190Z,89.09
2022-09-26T15:45:30.398Z,90.67
2022-09-26T15:48:26.331Z,90.55
2022-09-26T15:51:02.105Z,89.55
2022-09-26T15:53:46.570Z,90.04
2022-09-26T15:56:43.363Z,89.98
2022-09-26T15:59:25.643Z,89.75
2022-09-26T16:01:53.319Z,90.28
2022-09-26T16:04:33.527Z,88.93
2022-09-26T16:07:20.672Z,88.05
2022-09-26T16:09:51.408Z,89.70
2022-09-26T16:12:24.980Z,89.38
2022-09-26T16:15:06.014Z,89.84
2022-09-26T16:17:49.188Z,89.58
2022-09-26T16:20:19.008Z,90.96
2022-09-26T16:22:52.598Z,90.59
2022-09-26T16:25:22.920Z,89.78
2022-09-26T16:28:21.082Z,89.88
2022-09-26T16:30:59.981Z,88.27
2022-09-26T16:33:45.104Z,88.50
2022-09-26T16:36:31.554Z,89.50
2022-09-26T16:39:05.915Z,89.48
2022-09-26T16:42:00.482Z,89.09
2022-09-26T16:44:41.806Z,88.65
2022-09-26T16:47:43.842Z,89.13
2022-09-26T16:50:33.402Z,88.63
2022-09-26T16:53:03.087Z,89.32
2022-09-26T16:55:35.093Z,88.64
2022-09-26T16:58:05.172Z,89.46
2022-09-26T17:00:53.401Z,89.13
2022-09-26T17:03:27.700Z,88.95
2022-09-26T17:05:57.184Z,88.56
2022-09-26T17:08:28.185Z,88.68
2022-09-26T17:11:00.304Z,87.31
2022-09-26T17:13:33.072Z,87.75
2022-09-26T17:16:03.773Z,87.14
2022-09-26T17:18:34.443Z,87.16
2022-09-26T17:21:01.682Z,87.10
2022-09-26T17:23:42.041Z,86.70
2022-09-26T17:26:25.454Z,85.52
2022-09-26T17:28:58.255Z,86.22
2022-09-26T17:31:27.736Z,85.24
2022-09-26T17:33:57.394Z,85.86
2022-09-26T17:36:28.114Z,85.65
2022-09-26T17:38:57.711Z,84.78
2022-09-26T17:41:29.687Z,83.93
2022-09-26T17:44:01.062Z,83.72
2022-09-26T17:46:28.967Z,83.83
2022-09-26T17:48:59.355Z,84.38
2022-09-26T17:51:26.449Z,82.86
2022-09-26T17:53:57.497Z,83.89
2022-09-26T17:56:26.441Z,83.47
2022-09-26T17:58:54.226Z,84.09
2022-09-26T18:01:30.247Z,83.37
2022-09-26T18:04:03.899Z,83.24
2022-09-26T18:06:33.278Z,83.76
2022-09-26T18:09:07.740Z,83.03
2022-09-26T18:11:36.299Z,83.94
2022-09-26T18:14:06.953Z,83.63
2022-09-26T18:16:34.078Z,84.50
2022-09-26T18:19:06.860Z,84.45
2022-09-26T18:21:40.754Z,83.25
2022-09-26T18:24:20.190Z,83.96
2022-09-26T18:26:55.127Z,85.01
2022-09-26T18:29:39.144Z,83.94
2022-09-26T18:32:27.378Z,83.62
2022-09-26T18:34:59.672Z,83.12
2022-09-26T18:37:27.410Z,84.04
2022-09-26T18:40:03.808Z,83.86
2022-09-26T18:42:49.298Z,83.84
2022-09-26T18:45:40.410Z,83.04
2022-09-26T18:48:25.931Z,83.75
2022-09-26T18:51:02.737Z,84.65
2022-09-26T18:53:40.178Z,84.82
2022-09-26T18:56:31.618Z,85.12
2022-09-26T18:58:59.880Z,85.27
2022-09-26T19:01:38.326Z,85.15
2022-09-26T19:04:17.254Z,85.80
2022-09-26T19:06:49.714Z,86.19
2022-09-26T19:09:20.805Z,85.21
2022-09-26T19:11:47.753Z,85.44
2022-09-26T19:14:20.321Z,85.99
2022-09-26T19:16:51.858Z,86.60
2022-09-26T19:19:26.827Z,87.38
2022-09-26T19:22:08.235Z,86.10
2022-09-26T19:24:45.626Z,85.78
2022-09-26T19:27:21.598Z,87.98
2022-09-26T19:29:58.885Z,88.48
2022-09-26T19:32:45.065Z,89.05
2022-09-26T19:35:33.026Z,88.74
2022-09-26T19:38:05.844Z,88.47
2022-09-26T19:40:36.508Z,88.51
2022-09-26T19:43:05.795Z,90.39
2022-09-26T19:45:38.589Z,88.86
2022-09-26T19:48:06.834Z,88.91
2022-09-26T19:50:38.186Z,89.76
2022-09-26T19:53:19.186Z,90.35
2022-09-26T19:55:50.156Z,90.46
2022-09-26T19:58:26.311Z,89.69
2022-09-26T20:01:02.404Z,90.85
2022-09-26T20:03:39.908Z,90.43
2022-09-26T20:06:17.922Z,90.01
2022-09-26T20:08:45.029Z,89.78
2022-09-26T20:11:14.559Z,90.37
2022-09-26T20:14:00.496Z,89.56
2022-09-26T20:16:31.656Z,91.33
2022-09-26T20:18:58.858Z,91.60
2022-09-26T20:21:29.529Z,91.53
2022-09-26T20:24:00.314Z,91.92
2022-09-26T20:26:30.697Z,91.13
2022-09-26T20:29:00.245Z,90.33
2022-09-26T20:31:31.275Z,90.96
2022-09-26T20:34:05.926Z,90.72
2022-09-26T20:36:35.988Z,90.33
2022-09-26T20:39:07.407Z,91.78
2022-09-26T20:41:40.337Z,90.62
2022-09-26T20:44:17.922Z,90.60
2022-09-26T20:46:54.211Z,91.80
2022-09-26T20:49:28.683Z,90.98
2022-09-26T20:51:59.865Z,90.14
2022-09-26T20:54:36.838Z,89.74
2022-09-26T20:57:03.859Z,89.24
2022-09-26T20:59:35.128Z,90.03
2022-09-26T21:02:26.441Z,89.52
2022-09-26T21:04:53.937Z,89.01
2022-09-26T21:07:22.354Z,89.18
2022-09-26T21:09:53.738Z,88.68
2022-09-26T21:12:20.827Z,89.25
2022-09-26T21:14:47.830Z,89.23
2022-09-26T21:17:23.102Z,89.06
2022-09-26T21:19:51.459Z,89.07
2022-09-26T21:22:25.721Z,90.33
2022-09-26T21:24:55.479Z,89.26
2022-09-26T21:27:24.769Z,88.16
2022-09-26T21:30:01.670Z,88.82
2022-09-26T21:32:31.345Z,88.38
2022-09-26T21:35:04.011Z,88.28
2022-09-26T21:37:31.520Z,88.45
2022-09-26T21:40:01.015Z,89.26
2022-09-26T21:42:28.022Z,89.34
2022-09-26T21:45:03.006Z,88.11
2022-09-26T21:47:30.298Z,88.72
2022-09-26T21:49:57.961Z,89.37
2022-09-26T21:52:37.811Z,88.22
2022-09-26T21:55:06.405Z,88.70
2022-09-26T21:57:39.053Z,90.14
2022-09-26T22:00:10.084Z,89.88
2022-09-26T22:02:38.725Z,90.05
2022-09-26T22:05:06.486Z,90.74
2022-09-26T22:07:33.357Z,89.60
2022-09-26T22:10:00.376Z,89.40
2022-09-26T22:12:27.437Z,89.54
2022-09-26T22:14:54.504Z,88.87
2022-09-26T22:17:21.422Z,88.71
2022-09-26T22:19:48.509Z,89.36
2022-09-26T22:22:18.014Z,88.95
2022-09-26T22:24:45.300Z,89.97
2022-09-26T22:27:12.548Z,89.31
2022-09-26T22:29:41.571Z,89.83
2022-09-26T22:32:10.931Z,89.91
2022-09-26T22:34:37.857Z,89.86
2022-09-26T22:37:07.111Z,90.13
2022-09-26T22:39:36.181Z,89.05
2022-09-26T22:42:03.261Z,89.19
2022-09-26T22:44:31.145Z,90.27
2022-09-26T22:47:00.744Z,90.62
2022-09-26T22:49:30.794Z,90.25
2022-09-26T22:52:07.566Z,91.16
2022-09-26T22:54:34.647Z,91.27
2022-09-26T22:57:02.059Z,90.96
2022-09-26T22:59:29.010Z,90.81
2022-09-26T23:01:59.008Z,91.39
2022-09-26T23:04:45.883Z,92.03
2022-09-26T23:07:15.776Z,93.09
2022-09-26T23:09:45.791Z,93.41
2022-09-26T23:12:12.945Z,93.20
2022-09-26T23:14:40.332Z,94.52
2022-09-26T23:17:09.859Z,94.49
2022-09-26T23:19:40.140Z,94.23
2022-09-26T23:22:09.482Z,94.10
2022-09-26T23:24:36.603Z,94.06
2022-09-26T23:27:04.215Z,93.36
2022-09-26T23:29:31.329Z,93.94
2022-09-26T23:32:01.101Z,94.34
2022-09-26T23:34:28.316Z,93.97
2022-09-26T23:36:55.835Z,94.36
2022-09-26T23:39:25.575Z,93.62
2022-09-26T23:41:52.461Z,94.38
2022-09-26T23:44:20.038Z,93.54
2022-09-26T23:46:48.219Z,94.13
2022-09-26T23:49:15.328Z,93.00
2022-09-26T23:51:42.553Z,93.06
2022-09-26T23:54:09.616Z,92.50
2022-09-26T23:56:38.727Z,92.31
2022-09-26T23:59:05.823Z,92.92
